sensor_id;sensor_type;location;lat;lon;timestamp;pressure;altitude;pressure_sealevel;temperature;humidity
40117;BME280;25829;50.228;18.936;2022-07-26T00:00:40;97909.97;;;18.11;55.48
40117;BME280;25829;50.228;18.936;2022-07-26T00:03:41;97907.28;;;18.06;55.77
40117;BME280;25829;50.228;18.936;2022-07-26T00:06:42;97904.06;;;18.04;55.72
40117;BME280;25829;50.228;18.936;2022-07-26T00:09:43;97905.16;;;18.08;55.41
40117;BME280;25829;50.228;18.936;2022-07-26T00:12:44;97897.16;;;18.08;55.65
40117;BME280;25829;50.228;18.936;2022-07-26T00:15:46;97905.97;;;18.08;55.57
40117;BME280;25829;50.228;18.936;2022-07-26T00:18:47;97901.16;;;18.05;55.79
40117;BME280;25829;50.228;18.936;2022-07-26T00:21:48;97901.41;;;18.04;55.60
40117;BME280;25829;50.228;18.936;2022-07-26T00:25:09;97902.22;;;18.04;55.36
40117;BME280;25829;50.228;18.936;2022-07-26T00:28:10;97901.94;;;18.06;55.46
40117;BME280;25829;50.228;18.936;2022-07-26T00:31:11;97908.63;;;18.08;55.20
40117;BME280;25829;50.228;18.936;2022-07-26T00:34:12;97900.34;;;18.10;55.29
40117;BME280;25829;50.228;18.936;2022-07-26T00:37:13;97899.53;;;18.09;55.12
40117;BME280;25829;50.228;18.936;2022-07-26T00:40:14;97893.13;;;18.10;55.04
40117;BME280;25829;50.228;18.936;2022-07-26T00:43:15;97885.66;;;18.12;55.11
40117;BME280;25829;50.228;18.936;2022-07-26T00:46:16;97887.00;;;18.15;54.90
40117;BME280;25829;50.228;18.936;2022-07-26T00:49:17;97875.50;;;18.20;55.02
40117;BME280;25829;50.228;18.936;2022-07-26T00:52:18;97873.38;;;18.22;55.01
40117;BME280;25829;50.228;18.936;2022-07-26T00:55:19;97859.97;;;18.27;54.95
40117;BME280;25829;50.228;18.936;2022-07-26T00:58:20;97860.25;;;18.30;54.70
40117;BME280;25829;50.228;18.936;2022-07-26T01:01:21;97855.16;;;18.34;54.60
40117;BME280;25829;50.228;18.936;2022-07-26T01:04:21;97844.72;;;18.37;54.32
40117;BME280;25829;50.228;18.936;2022-07-26T01:07:22;97841.78;;;18.39;54.44
40117;BME280;25829;50.228;18.936;2022-07-26T01:10:24;97842.84;;;18.43;54.40
40117;BME280;25829;50.228;18.936;2022-07-26T01:13:25;97839.88;;;18.45;54.24
40117;BME280;25829;50.228;18.936;2022-07-26T01:16:26;97832.91;;;18.49;54.49
40117;BME280;25829;50.228;18.936;2022-07-26T01:19:27;97822.78;;;18.51;54.23
40117;BME280;25829;50.228;18.936;2022-07-26T01:22:27;97828.38;;;18.54;54.35
40117;BME280;25829;50.228;18.936;2022-07-26T01:25:35;97825.94;;;18.58;54.50
40117;BME280;25829;50.228;18.936;2022-07-26T01:28:37;97829.16;;;18.60;54.57
40117;BME280;25829;50.228;18.936;2022-07-26T01:31:38;97818.47;;;18.60;54.55
40117;BME280;25829;50.228;18.936;2022-07-26T01:34:39;97831.81;;;18.60;54.25
40117;BME280;25829;50.228;18.936;2022-07-26T01:37:40;97821.69;;;18.57;54.57
40117;BME280;25829;50.228;18.936;2022-07-26T01:40:41;97822.47;;;18.52;54.72
40117;BME280;25829;50.228;18.936;2022-07-26T01:43:41;97815.03;;;18.49;54.75
40117;BME280;25829;50.228;18.936;2022-07-26T01:46:42;97821.44;;;18.48;54.89
40117;BME280;25829;50.228;18.936;2022-07-26T01:49:43;97815.84;;;18.45;55.37
40117;BME280;25829;50.228;18.936;2022-07-26T01:52:44;97818.25;;;18.41;55.29
40117;BME280;25829;50.228;18.936;2022-07-26T01:55:45;97817.22;;;18.37;55.13
40117;BME280;25829;50.228;18.936;2022-07-26T01:58:45;97807.63;;;18.36;55.32
40117;BME280;25829;50.228;18.936;2022-07-26T02:01:46;97806.56;;;18.32;55.56
40117;BME280;25829;50.228;18.936;2022-07-26T02:04:47;97807.38;;;18.27;55.88
40117;BME280;25829;50.228;18.936;2022-07-26T02:08:00;97804.19;;;18.20;56.01
40117;BME280;25829;50.228;18.936;2022-07-26T02:11:01;97811.44;;;18.14;56.22
40117;BME280;25829;50.228;18.936;2022-07-26T02:14:02;97796.78;;;18.12;56.29
40117;BME280;25829;50.228;18.936;2022-07-26T02:17:03;97797.84;;;18.11;56.41
40117;BME280;25829;50.228;18.936;2022-07-26T02:20:05;97790.09;;;18.09;56.40
40117;BME280;25829;50.228;18.936;2022-07-26T02:23:07;97793.31;;;18.11;56.38
40117;BME280;25829;50.228;18.936;2022-07-26T02:26:08;97791.69;;;18.10;56.57
40117;BME280;25829;50.228;18.936;2022-07-26T02:29:08;97785.31;;;18.11;56.59
40117;BME280;25829;50.228;18.936;2022-07-26T02:32:09;97779.69;;;18.13;56.77
40117;BME280;25829;50.228;18.936;2022-07-26T02:35:13;97772.75;;;18.07;57.04
40117;BME280;25829;50.228;18.936;2022-07-26T02:38:15;97775.41;;;18.07;57.12
40117;BME280;25829;50.228;18.936;2022-07-26T02:41:16;97766.06;;;18.09;56.84
40117;BME280;25829;50.228;18.936;2022-07-26T02:44:17;97768.50;;;18.11;56.77
40117;BME280;25829;50.228;18.936;2022-07-26T02:47:17;97773.00;;;18.10;56.72
40117;BME280;25829;50.228;18.936;2022-07-26T02:50:20;97777.53;;;18.10;57.18
40117;BME280;25829;50.228;18.936;2022-07-26T02:53:21;97767.41;;;18.07;57.32
40117;BME280;25829;50.228;18.936;2022-07-26T02:56:22;97768.22;;;18.07;57.31
40117;BME280;25829;50.228;18.936;2022-07-26T02:59:23;97758.34;;;18.08;57.34
40117;BME280;25829;50.228;18.936;2022-07-26T03:02:23;97767.94;;;18.09;57.63
40117;BME280;25829;50.228;18.936;2022-07-26T03:05:24;97763.16;;;18.11;57.34
40117;BME280;25829;50.228;18.936;2022-07-26T03:08:25;97767.91;;;18.14;57.43
40117;BME280;25829;50.228;18.936;2022-07-26T03:11:26;97759.91;;;18.14;57.29
40117;BME280;25829;50.228;18.936;2022-07-26T03:14:27;97757.00;;;18.10;57.55
40117;BME280;25829;50.228;18.936;2022-07-26T03:17:28;97762.06;;;18.12;57.66
40117;BME280;25829;50.228;18.936;2022-07-26T03:20:28;97760.19;;;18.12;57.65
40117;BME280;25829;50.228;18.936;2022-07-26T03:23:29;97763.94;;;18.11;58.02
40117;BME280;25829;50.228;18.936;2022-07-26T03:26:32;97760.47;;;18.11;58.25
40117;BME280;25829;50.228;18.936;2022-07-26T03:29:33;97762.63;;;18.09;58.66
40117;BME280;25829;50.228;18.936;2022-07-26T03:32:34;97756.47;;;18.08;58.61
40117;BME280;25829;50.228;18.936;2022-07-26T03:35:35;97747.63;;;18.13;58.75
40117;BME280;25829;50.228;18.936;2022-07-26T03:38:36;97750.31;;;18.18;58.39
40117;BME280;25829;50.228;18.936;2022-07-26T03:41:37;97746.50;;;18.24;58.45
40117;BME280;25829;50.228;18.936;2022-07-26T03:44:38;97751.31;;;18.27;58.64
40117;BME280;25829;50.228;18.936;2022-07-26T03:47:38;97755.06;;;18.26;58.52
40117;BME280;25829;50.228;18.936;2022-07-26T03:50:39;97741.47;;;18.23;59.15
40117;BME280;25829;50.228;18.936;2022-07-26T03:53:40;97748.13;;;18.20;59.34
40117;BME280;25829;50.228;18.936;2022-07-26T03:56:41;97745.22;;;18.22;59.21
40117;BME280;25829;50.228;18.936;2022-07-26T03:59:41;97742.78;;;18.25;59.40
40117;BME280;25829;50.228;18.936;2022-07-26T04:02:42;97742.22;;;18.33;59.55
40117;BME280;25829;50.228;18.936;2022-07-26T04:05:43;97740.81;;;18.41;59.56
40117;BME280;25829;50.228;18.936;2022-07-26T04:08:44;97753.09;;;18.47;59.29
40117;BME280;25829;50.228;18.936;2022-07-26T04:11:44;97746.91;;;18.52;59.45
40117;BME280;25829;50.228;18.936;2022-07-26T04:14:47;97752.72;;;18.59;58.80
40117;BME280;25829;50.228;18.936;2022-07-26T04:17:47;97749.75;;;18.66;58.41
40117;BME280;25829;50.228;18.936;2022-07-26T04:20:48;97737.44;;;18.70;58.05
40117;BME280;25829;50.228;18.936;2022-07-26T04:23:50;97737.16;;;18.71;58.00
40117;BME280;25829;50.228;18.936;2022-07-26T04:26:50;97738.19;;;18.75;57.90
40117;BME280;25829;50.228;18.936;2022-07-26T04:29:51;97740.03;;;18.80;58.07
40117;BME280;25829;50.228;18.936;2022-07-26T04:32:52;97732.53;;;18.87;58.13
40117;BME280;25829;50.228;18.936;2022-07-26T04:35:53;97733.28;;;18.93;57.79
40117;BME280;25829;50.228;18.936;2022-07-26T04:38:53;97743.44;;;18.96;57.65
40117;BME280;25829;50.228;18.936;2022-07-26T04:41:54;97753.28;;;19.00;57.84
40117;BME280;25829;50.228;18.936;2022-07-26T04:44:55;97755.13;;;19.05;58.03
40117;BME280;25829;50.228;18.936;2022-07-26T04:47:56;97758.28;;;19.12;58.61
40117;BME280;25829;50.228;18.936;2022-07-26T04:50:57;97762.75;;;19.22;58.66
40117;BME280;25829;50.228;18.936;2022-07-26T04:53:58;97779.50;;;19.32;58.57
40117;BME280;25829;50.228;18.936;2022-07-26T04:56:59;97796.25;;;19.43;58.57
40117;BME280;25829;50.228;18.936;2022-07-26T05:00:00;97833.88;;;19.52;58.34
40117;BME280;25829;50.228;18.936;2022-07-26T05:03:02;97850.41;;;19.59;57.93
40117;BME280;25829;50.228;18.936;2022-07-26T05:06:03;97848.50;;;19.65;58.02
40117;BME280;25829;50.228;18.936;2022-07-26T05:09:04;97902.28;;;19.68;57.73
40117;BME280;25829;50.228;18.936;2022-07-26T05:12:05;97865.91;;;19.67;57.37
40117;BME280;25829;50.228;18.936;2022-07-26T05:15:06;97860.25;;;19.69;56.99
40117;BME280;25829;50.228;18.936;2022-07-26T05:18:08;97847.63;;;19.74;57.07
40117;BME280;25829;50.228;18.936;2022-07-26T05:21:09;97847.34;;;19.76;56.96
40117;BME280;25829;50.228;18.936;2022-07-26T05:24:10;97840.41;;;19.75;57.04
40117;BME280;25829;50.228;18.936;2022-07-26T05:27:16;97831.56;;;19.74;57.08
40117;BME280;25829;50.228;18.936;2022-07-26T05:30:17;97828.91;;;19.74;56.86
40117;BME280;25829;50.228;18.936;2022-07-26T05:33:18;97847.56;;;19.79;57.27
40117;BME280;25829;50.228;18.936;2022-07-26T05:36:19;97849.66;;;19.88;57.32
40117;BME280;25829;50.228;18.936;2022-07-26T05:39:19;97850.59;;;19.97;57.45
40117;BME280;25829;50.228;18.936;2022-07-26T05:42:20;97855.84;;;20.07;57.41
40117;BME280;25829;50.228;18.936;2022-07-26T05:45:21;97870.22;;;20.16;57.18
40117;BME280;25829;50.228;18.936;2022-07-26T05:48:22;97867.44;;;20.26;57.33
40117;BME280;25829;50.228;18.936;2022-07-26T05:51:23;97872.69;;;20.37;57.27
40117;BME280;25829;50.228;18.936;2022-07-26T05:54:24;97873.44;;;20.42;57.03
40117;BME280;25829;50.228;18.936;2022-07-26T05:57:25;97864.78;;;20.50;57.06
40117;BME280;25829;50.228;18.936;2022-07-26T06:00:25;97868.91;;;20.62;56.81
40117;BME280;25829;50.228;18.936;2022-07-26T06:03:26;97874.44;;;20.70;56.67
40117;BME280;25829;50.228;18.936;2022-07-26T06:06:27;97880.97;;;20.83;56.54
40117;BME280;25829;50.228;18.936;2022-07-26T06:09:28;97890.97;;;20.96;56.68
40117;BME280;25829;50.228;18.936;2022-07-26T06:12:29;97892.44;;;21.08;56.36
40117;BME280;25829;50.228;18.936;2022-07-26T06:15:30;97909.19;;;21.18;56.32
40117;BME280;25829;50.228;18.936;2022-07-26T06:18:31;97916.81;;;21.30;56.21
40117;BME280;25829;50.228;18.936;2022-07-26T06:21:31;97915.38;;;21.38;56.68
40117;BME280;25829;50.228;18.936;2022-07-26T06:24:32;97930.53;;;21.48;56.90
40117;BME280;25829;50.228;18.936;2022-07-26T06:27:33;97947.19;;;21.63;57.03
40117;BME280;25829;50.228;18.936;2022-07-26T06:30:35;97939.28;;;21.72;57.26
40117;BME280;25829;50.228;18.936;2022-07-26T06:33:36;97941.56;;;21.79;57.68
40117;BME280;25829;50.228;18.936;2022-07-26T06:36:37;97955.34;;;21.91;57.99
40117;BME280;25829;50.228;18.936;2022-07-26T06:39:38;97954.78;;;21.94;57.84
40117;BME280;25829;50.228;18.936;2022-07-26T06:42:38;97958.25;;;21.94;58.02
40117;BME280;25829;50.228;18.936;2022-07-26T06:45:39;97956.47;;;21.90;58.26
40117;BME280;25829;50.228;18.936;2022-07-26T06:48:40;97975.25;;;21.90;58.05
40117;BME280;25829;50.228;18.936;2022-07-26T06:51:41;97977.69;;;21.86;58.30
40117;BME280;25829;50.228;18.936;2022-07-26T06:54:42;97988.44;;;21.86;58.49
40117;BME280;25829;50.228;18.936;2022-07-26T06:57:43;97998.03;;;21.92;58.80
40117;BME280;25829;50.228;18.936;2022-07-26T07:00:44;97998.66;;;21.84;59.11
40117;BME280;25829;50.228;18.936;2022-07-26T07:03:45;97999.34;;;21.76;59.00
40117;BME280;25829;50.228;18.936;2022-07-26T07:06:47;97993.19;;;21.76;59.34
40117;BME280;25829;50.228;18.936;2022-07-26T07:09:48;98018.72;;;21.73;59.47
40117;BME280;25829;50.228;18.936;2022-07-26T07:12:49;98025.97;;;21.73;59.69
40117;BME280;25829;50.228;18.936;2022-07-26T07:15:53;98033.06;;;21.63;60.05
40117;BME280;25829;50.228;18.936;2022-07-26T07:18:53;98047.28;;;21.45;61.28
40117;BME280;25829;50.228;18.936;2022-07-26T07:21:54;98046.19;;;21.27;60.74
40117;BME280;25829;50.228;18.936;2022-07-26T07:24:56;98052.91;;;21.25;60.95
40117;BME280;25829;50.228;18.936;2022-07-26T07:27:58;98054.88;;;21.14;62.70
40117;BME280;25829;50.228;18.936;2022-07-26T07:31:00;98052.41;;;20.98;62.02
40117;BME280;25829;50.228;18.936;2022-07-26T07:34:01;98056.31;;;20.82;62.67
40117;BME280;25829;50.228;18.936;2022-07-26T07:37:02;98058.00;;;20.73;62.53
40117;BME280;25829;50.228;18.936;2022-07-26T07:40:05;98056.47;;;20.67;62.79
40117;BME280;25829;50.228;18.936;2022-07-26T07:43:06;98067.41;;;20.70;63.69
40117;BME280;25829;50.228;18.936;2022-07-26T07:46:07;98080.59;;;20.67;63.15
40117;BME280;25829;50.228;18.936;2022-07-26T07:49:08;98080.31;;;20.68;63.20
40117;BME280;25829;50.228;18.936;2022-07-26T07:52:10;98095.88;;;20.66;63.96
40117;BME280;25829;50.228;18.936;2022-07-26T07:55:10;98091.63;;;20.60;63.90
40117;BME280;25829;50.228;18.936;2022-07-26T07:58:11;98095.97;;;20.56;64.16
40117;BME280;25829;50.228;18.936;2022-07-26T08:01:12;98090.91;;;20.49;64.42
40117;BME280;25829;50.228;18.936;2022-07-26T08:04:13;98100.84;;;20.49;64.42
40117;BME280;25829;50.228;18.936;2022-07-26T08:07:13;98105.94;;;20.50;65.09
40117;BME280;25829;50.228;18.936;2022-07-26T08:10:14;98103.03;;;20.47;65.13
40117;BME280;25829;50.228;18.936;2022-07-26T08:13:16;98100.91;;;20.39;66.84
40117;BME280;25829;50.228;18.936;2022-07-26T08:16:17;98101.78;;;20.29;66.43
40117;BME280;25829;50.228;18.936;2022-07-26T08:19:23;98105.28;;;20.24;67.59
40117;BME280;25829;50.228;18.936;2022-07-26T08:22:25;98122.44;;;20.23;67.26
40117;BME280;25829;50.228;18.936;2022-07-26T08:25:26;98117.09;;;20.23;67.33
40117;BME280;25829;50.228;18.936;2022-07-26T08:28:27;98121.38;;;20.24;67.77
40117;BME280;25829;50.228;18.936;2022-07-26T08:31:28;98109.31;;;20.27;67.67
40117;BME280;25829;50.228;18.936;2022-07-26T08:34:32;98099.91;;;20.29;69.13
40117;BME280;25829;50.228;18.936;2022-07-26T08:37:33;98106.88;;;20.31;68.15
40117;BME280;25829;50.228;18.936;2022-07-26T08:40:34;98116.50;;;20.32;68.04
40117;BME280;25829;50.228;18.936;2022-07-26T08:43:35;98119.47;;;20.30;67.84
40117;BME280;25829;50.228;18.936;2022-07-26T08:46:37;98123.72;;;20.31;67.72
40117;BME280;25829;50.228;18.936;2022-07-26T08:49:39;98124.81;;;20.30;67.63
40117;BME280;25829;50.228;18.936;2022-07-26T08:52:41;98120.53;;;20.29;68.44
40117;BME280;25829;50.228;18.936;2022-07-26T08:55:42;98129.94;;;20.26;68.02
40117;BME280;25829;50.228;18.936;2022-07-26T08:58:43;98142.53;;;20.26;67.68
40117;BME280;25829;50.228;18.936;2022-07-26T09:02:05;98138.47;;;20.28;68.74
40117;BME280;25829;50.228;18.936;2022-07-26T09:05:07;98147.06;;;20.25;68.13
40117;BME280;25829;50.228;18.936;2022-07-26T09:08:27;98142.56;;;20.21;68.93
40117;BME280;25829;50.228;18.936;2022-07-26T09:11:31;98138.59;;;20.13;68.12
40117;BME280;25829;50.228;18.936;2022-07-26T09:14:36;98144.44;;;20.15;68.51
40117;BME280;25829;50.228;18.936;2022-07-26T09:17:40;98140.66;;;20.21;68.59
40117;BME280;25829;50.228;18.936;2022-07-26T09:20:45;98137.44;;;20.24;69.01
40117;BME280;25829;50.228;18.936;2022-07-26T09:23:46;98149.97;;;20.29;69.15
40117;BME280;25829;50.228;18.936;2022-07-26T09:26:58;98161.72;;;20.43;69.22
40117;BME280;25829;50.228;18.936;2022-07-26T09:30:04;98178.47;;;20.59;68.79
40117;BME280;25829;50.228;18.936;2022-07-26T09:33:06;98189.09;;;20.74;68.29
40117;BME280;25829;50.228;18.936;2022-07-26T09:36:07;98199.16;;;20.88;68.12
40117;BME280;25829;50.228;18.936;2022-07-26T09:39:08;98203.94;;;20.96;67.69
40117;BME280;25829;50.228;18.936;2022-07-26T09:42:09;98204.66;;;21.02;67.28
40117;BME280;25829;50.228;18.936;2022-07-26T09:45:16;98208.66;;;21.04;67.46
40117;BME280;25829;50.228;18.936;2022-07-26T09:48:26;98219.97;;;21.01;67.40
40117;BME280;25829;50.228;18.936;2022-07-26T09:51:52;98220.00;;;20.96;67.93
40117;BME280;25829;50.228;18.936;2022-07-26T09:55:03;98236.97;;;20.86;67.45
40117;BME280;25829;50.228;18.936;2022-07-26T09:58:04;98234.38;;;20.76;67.29
40117;BME280;25829;50.228;18.936;2022-07-26T10:01:06;98234.69;;;20.69;67.39
40117;BME280;25829;50.228;18.936;2022-07-26T10:04:07;98239.56;;;20.62;67.47
40117;BME280;25829;50.228;18.936;2022-07-26T10:07:09;98246.31;;;20.55;67.49
40117;BME280;25829;50.228;18.936;2022-07-26T10:10:14;98245.84;;;20.47;67.69
40117;BME280;25829;50.228;18.936;2022-07-26T10:13:18;98248.28;;;20.44;67.83
40117;BME280;25829;50.228;18.936;2022-07-26T10:16:29;98253.63;;;20.44;68.31
40117;BME280;25829;50.228;18.936;2022-07-26T10:19:38;98257.63;;;20.41;68.12
40117;BME280;25829;50.228;18.936;2022-07-26T10:22:44;98254.16;;;20.41;67.84
40117;BME280;25829;50.228;18.936;2022-07-26T10:25:46;98250.94;;;20.39;67.78
40117;BME280;25829;50.228;18.936;2022-07-26T10:28:48;98260.59;;;20.35;68.19
40117;BME280;25829;50.228;18.936;2022-07-26T10:34:56;98259.06;;;20.23;68.13
40117;BME280;25829;50.228;18.936;2022-07-26T10:41:03;98264.47;;;20.08;68.21
40117;BME280;25829;50.228;18.936;2022-07-26T10:44:29;98277.59;;;20.10;69.44
40117;BME280;25829;50.228;18.936;2022-07-26T10:47:30;98269.59;;;19.99;68.74
40117;BME280;25829;50.228;18.936;2022-07-26T10:50:32;98270.44;;;19.95;68.64
40117;BME280;25829;50.228;18.936;2022-07-26T10:53:33;98273.38;;;19.93;68.45
40117;BME280;25829;50.228;18.936;2022-07-26T10:56:34;98283.03;;;19.89;68.68
40117;BME280;25829;50.228;18.936;2022-07-26T10:59:35;98280.09;;;19.80;68.76
40117;BME280;25829;50.228;18.936;2022-07-26T11:02:35;98286.00;;;19.77;68.88
40117;BME280;25829;50.228;18.936;2022-07-26T11:05:36;98283.34;;;19.72;68.80
40117;BME280;25829;50.228;18.936;2022-07-26T11:08:37;98294.56;;;19.69;68.73
40117;BME280;25829;50.228;18.936;2022-07-26T11:11:38;98296.47;;;19.69;68.92
40117;BME280;25829;50.228;18.936;2022-07-26T11:14:39;98282.81;;;19.65;69.25
40117;BME280;25829;50.228;18.936;2022-07-26T11:17:40;98284.41;;;19.61;69.60
40117;BME280;25829;50.228;18.936;2022-07-26T11:20:43;98289.50;;;19.52;69.94
40117;BME280;25829;50.228;18.936;2022-07-26T11:23:47;98281.22;;;19.44;70.02
40117;BME280;25829;50.228;18.936;2022-07-26T11:26:49;98277.75;;;19.43;70.38
40117;BME280;25829;50.228;18.936;2022-07-26T11:29:50;98281.75;;;19.46;70.56
40117;BME280;25829;50.228;18.936;2022-07-26T11:32:52;98277.47;;;19.45;71.17
40117;BME280;25829;50.228;18.936;2022-07-26T11:35:53;98276.41;;;19.41;71.02
40117;BME280;25829;50.228;18.936;2022-07-26T11:38:54;98281.75;;;19.35;71.08
40117;BME280;25829;50.228;18.936;2022-07-26T11:42:04;98284.44;;;19.30;71.10
40117;BME280;25829;50.228;18.936;2022-07-26T11:45:08;98287.41;;;19.29;71.20
40117;BME280;25829;50.228;18.936;2022-07-26T11:48:10;98279.09;;;19.20;70.92
40117;BME280;25829;50.228;18.936;2022-07-26T11:51:12;98284.72;;;19.19;71.06
40117;BME280;25829;50.228;18.936;2022-07-26T11:54:13;98281.50;;;19.17;70.73
40117;BME280;25829;50.228;18.936;2022-07-26T11:57:15;98276.72;;;19.19;70.97
40117;BME280;25829;50.228;18.936;2022-07-26T12:00:16;98284.72;;;19.24;71.09
40117;BME280;25829;50.228;18.936;2022-07-26T12:03:17;98288.44;;;19.28;70.92
40117;BME280;25829;50.228;18.936;2022-07-26T12:06:21;98288.19;;;19.34;71.01
40117;BME280;25829;50.228;18.936;2022-07-26T12:09:34;98292.19;;;19.42;71.56
40117;BME280;25829;50.228;18.936;2022-07-26T12:12:35;98289.50;;;19.47;71.01
40117;BME280;25829;50.228;18.936;2022-07-26T12:15:50;98286.28;;;19.55;71.21
40117;BME280;25829;50.228;18.936;2022-07-26T12:18:51;98299.91;;;19.59;70.65
40117;BME280;25829;50.228;18.936;2022-07-26T12:21:53;98309.00;;;19.63;70.54
40117;BME280;25829;50.228;18.936;2022-07-26T12:24:56;98301.25;;;19.67;70.50
40117;BME280;25829;50.228;18.936;2022-07-26T12:27:57;98303.94;;;19.67;70.50
40117;BME280;25829;50.228;18.936;2022-07-26T12:30:57;98305.28;;;19.69;70.21
40117;BME280;25829;50.228;18.936;2022-07-26T12:33:58;98304.22;;;19.70;70.41
40117;BME280;25829;50.228;18.936;2022-07-26T12:37:10;98309.03;;;19.73;70.80
40117;BME280;25829;50.228;18.936;2022-07-26T12:40:12;98302.88;;;19.73;70.52
40117;BME280;25829;50.228;18.936;2022-07-26T12:43:15;98298.06;;;19.75;70.38
40117;BME280;25829;50.228;18.936;2022-07-26T12:46:16;98308.47;;;19.76;70.53
40117;BME280;25829;50.228;18.936;2022-07-26T12:49:16;98311.94;;;19.77;70.72
40117;BME280;25829;50.228;18.936;2022-07-26T12:52:19;98312.25;;;19.75;70.30
40117;BME280;25829;50.228;18.936;2022-07-26T12:55:20;98319.47;;;19.75;69.87
40117;BME280;25829;50.228;18.936;2022-07-26T12:58:21;98315.19;;;19.74;69.31
40117;BME280;25829;50.228;18.936;2022-07-26T13:01:21;98322.16;;;19.70;68.92
40117;BME280;25829;50.228;18.936;2022-07-26T13:04:22;98317.63;;;19.70;69.07
40117;BME280;25829;50.228;18.936;2022-07-26T13:07:23;98311.97;;;19.72;68.80
40117;BME280;25829;50.228;18.936;2022-07-26T13:10:24;98306.34;;;19.73;69.02
40117;BME280;25829;50.228;18.936;2022-07-26T13:13:24;98307.16;;;19.74;68.92
40117;BME280;25829;50.228;18.936;2022-07-26T13:16:25;98312.78;;;19.77;69.24
40117;BME280;25829;50.228;18.936;2022-07-26T13:19:27;98320.00;;;19.82;68.78
40117;BME280;25829;50.228;18.936;2022-07-26T13:22:28;98320.00;;;19.82;69.02
40117;BME280;25829;50.228;18.936;2022-07-26T13:25:28;98315.44;;;19.83;69.22
40117;BME280;25829;50.228;18.936;2022-07-26T13:28:29;98320.50;;;19.84;69.20
40117;BME280;25829;50.228;18.936;2022-07-26T13:31:31;98310.63;;;19.85;69.28
40117;BME280;25829;50.228;18.936;2022-07-26T13:34:32;98315.44;;;19.88;69.54
40117;BME280;25829;50.228;18.936;2022-07-26T13:37:33;98320.50;;;19.89;69.61
40117;BME280;25829;50.228;18.936;2022-07-26T13:40:34;98313.53;;;19.93;69.51
40117;BME280;25829;50.228;18.936;2022-07-26T13:43:35;98314.59;;;19.97;69.60
40117;BME280;25829;50.228;18.936;2022-07-26T13:46:35;98311.91;;;20.02;69.14
40117;BME280;25829;50.228;18.936;2022-07-26T13:49:36;98310.00;;;20.08;69.12
40117;BME280;25829;50.228;18.936;2022-07-26T13:52:37;98301.97;;;20.13;68.99
40117;BME280;25829;50.228;18.936;2022-07-26T13:55:39;98302.22;;;20.17;68.61
40117;BME280;25829;50.228;18.936;2022-07-26T13:58:39;98294.97;;;20.17;68.16
40117;BME280;25829;50.228;18.936;2022-07-26T14:01:41;98306.47;;;20.18;68.13
40117;BME280;25829;50.228;18.936;2022-07-26T14:04:42;98316.66;;;20.21;68.33
40117;BME280;25829;50.228;18.936;2022-07-26T14:07:43;98318.78;;;20.24;68.33
40117;BME280;25829;50.228;18.936;2022-07-26T14:10:43;98322.81;;;20.21;67.89
40117;BME280;25829;50.228;18.936;2022-07-26T14:13:44;98313.19;;;20.15;67.81
40117;BME280;25829;50.228;18.936;2022-07-26T14:32:14;98314.59;;;20.02;68.38
40117;BME280;25829;50.228;18.936;2022-07-26T14:35:15;98321.28;;;20.00;68.00
40117;BME280;25829;50.228;18.936;2022-07-26T14:38:16;98317.53;;;19.96;67.94
40117;BME280;25829;50.228;18.936;2022-07-26T14:41:17;98323.44;;;19.93;68.01
40117;BME280;25829;50.228;18.936;2022-07-26T14:44:18;98333.88;;;19.89;68.00
40117;BME280;25829;50.228;18.936;2022-07-26T14:47:18;98330.66;;;19.87;68.37
40117;BME280;25829;50.228;18.936;2022-07-26T14:50:19;98338.69;;;19.87;68.75
40117;BME280;25829;50.228;18.936;2022-07-26T14:53:23;98333.63;;;19.86;68.70
40117;BME280;25829;50.228;18.936;2022-07-26T14:56:24;98329.38;;;19.85;68.48
40117;BME280;25829;50.228;18.936;2022-07-26T14:59:25;98325.06;;;19.84;68.36
40117;BME280;25829;50.228;18.936;2022-07-26T15:02:25;98325.88;;;19.79;68.20
40117;BME280;25829;50.228;18.936;2022-07-26T15:05:27;98316.00;;;19.74;68.36
40117;BME280;25829;50.228;18.936;2022-07-26T15:08:28;98329.38;;;19.64;68.30
40117;BME280;25829;50.228;18.936;2022-07-26T15:11:28;98322.38;;;19.63;69.11
40117;BME280;25829;50.228;18.936;2022-07-26T15:14:29;98326.94;;;19.63;69.33
40117;BME280;25829;50.228;18.936;2022-07-26T15:17:30;98333.66;;;19.65;69.33
40117;BME280;25829;50.228;18.936;2022-07-26T15:20:31;98329.13;;;19.66;69.61
40117;BME280;25829;50.228;18.936;2022-07-26T15:23:31;98333.13;;;19.68;69.67
40117;BME280;25829;50.228;18.936;2022-07-26T15:26:32;98334.72;;;19.69;69.53
40117;BME280;25829;50.228;18.936;2022-07-26T15:29:33;98333.09;;;19.63;69.68
40117;BME280;25829;50.228;18.936;2022-07-26T15:32:35;98328.03;;;19.67;69.98
40117;BME280;25829;50.228;18.936;2022-07-26T15:35:36;98318.66;;;19.69;69.70
40117;BME280;25829;50.228;18.936;2022-07-26T15:38:38;98324.03;;;19.74;69.65
40117;BME280;25829;50.228;18.936;2022-07-26T15:41:45;98314.38;;;19.73;69.50
40117;BME280;25829;50.228;18.936;2022-07-26T15:44:46;98323.19;;;19.84;69.71
40117;BME280;25829;50.228;18.936;2022-07-26T15:47:47;98311.69;;;19.89;68.90
40117;BME280;25829;50.228;18.936;2022-07-26T15:50:50;98317.28;;;19.92;68.55
40117;BME280;25829;50.228;18.936;2022-07-26T15:53:51;98313.56;;;19.88;68.71
40117;BME280;25829;50.228;18.936;2022-07-26T15:56:51;98318.09;;;19.83;68.25
40117;BME280;25829;50.228;18.936;2022-07-26T15:59:52;98311.41;;;19.85;68.54
40117;BME280;25829;50.228;18.936;2022-07-26T16:02:53;98310.59;;;19.95;68.44
40117;BME280;25829;50.228;18.936;2022-07-26T16:05:54;98307.88;;;20.05;68.19
40117;BME280;25829;50.228;18.936;2022-07-26T16:08:57;98302.22;;;20.12;67.95
40117;BME280;25829;50.228;18.936;2022-07-26T16:11:59;98310.78;;;20.19;67.34